Time;durP1;ratioP1;P1;durP2;ratioP2;P2;SDS_P1;SDS_P2;PMS_P1;PMS_P2;Temp;Humidity;BMP_temperature;BMP_pressure;BME280_temperature;BME280_humidity;BME280_pressure;Samples;Min_cycle;Max_cycle;Signal;HPM_P1;HPM_P2
2023/04/13 00:02:23;;;;;;;2.78;1.27;;;;;;;7.18;35.13;93140.06;5062691;28;20311;-71
2023/04/13 00:04:49;;;;;;;4.78;1.77;;;;;;;7.16;35.29;93136.19;5062623;28;20031;-71
2023/04/13 00:07:18;;;;;;;8.07;2.00;;;;;;;7.18;36.18;93139.31;5062592;28;20052;-71
2023/04/13 00:09:46;;;;;;;10.18;2.50;;;;;;;7.16;38.29;93152.09;5062668;28;20084;-71
2023/04/13 00:12:12;;;;;;;6.00;2.67;;;;;;;7.09;39.80;93157.84;5062587;28;20028;-71
2023/04/13 00:14:38;;;;;;;7.82;2.50;;;;;;;7.05;40.37;93162.19;5062578;28;20327;-71
2023/04/13 00:17:03;;;;;;;6.93;2.78;;;;;;;7.01;41.07;93177.16;5062762;28;20051;-71
2023/04/13 00:19:29;;;;;;;8.50;2.33;;;;;;;6.93;41.07;93170.72;5062547;28;20040;-73
2023/04/13 00:21:56;;;;;;;7.40;2.53;;;;;;;6.85;41.19;93168.81;5062568;28;20453;-72
2023/04/13 00:24:21;;;;;;;8.32;2.33;;;;;;;6.81;41.94;93168.66;5062488;28;20246;-70
2023/04/13 00:26:47;;;;;;;4.13;2.10;;;;;;;6.73;42.38;93165.97;5062588;28;20027;-70
2023/04/13 00:29:13;;;;;;;5.72;2.63;;;;;;;6.69;42.81;93170.31;5063178;28;20323;-70
2023/04/13 00:31:38;;;;;;;5.70;2.70;;;;;;;6.61;43.12;93169.19;5066751;28;20031;-70
2023/04/13 00:34:07;;;;;;;8.27;3.30;;;;;;;6.55;43.30;93167.75;5066871;28;20048;-70
2023/04/13 00:36:33;;;;;;;8.02;3.45;;;;;;;6.49;43.54;93168.97;5066751;28;20024;-70
2023/04/13 00:38:58;;;;;;;7.95;3.60;;;;;;;6.43;43.99;93168.31;5066515;28;20036;-70
2023/04/13 00:41:25;;;;;;;8.30;3.40;;;;;;;6.37;44.41;93165.03;5066347;28;20093;-70
2023/04/13 00:43:51;;;;;;;8.15;3.35;;;;;;;6.29;45.25;93172.91;5066150;28;20063;-70
2023/04/13 00:46:18;;;;;;;13.20;3.10;;;;;;;6.21;45.54;93174.44;5066333;28;20036;-70
2023/04/13 00:48:47;;;;;;;9.15;3.53;;;;;;;6.13;46.10;93165.34;5066377;28;20249;-70
2023/04/13 00:51:14;;;;;;;8.65;3.13;;;;;;;6.01;46.64;93165.88;5066170;28;20083;-70
2023/04/13 00:53:41;;;;;;;6.78;3.15;;;;;;;5.94;47.21;93159.41;5066118;28;20024;-70
2023/04/13 00:56:08;;;;;;;10.55;2.72;;;;;;;5.86;47.74;93178.66;5066012;28;20024;-70
2023/04/13 00:58:35;;;;;;;7.88;3.38;;;;;;;5.80;47.80;93170.84;5066081;28;20058;-70
2023/04/13 01:01:01;;;;;;;8.57;3.28;;;;;;;5.69;47.87;93166.84;5066111;28;20017;-70
2023/04/13 01:03:28;;;;;;;6.10;3.00;;;;;;;5.61;48.16;93170.22;5066002;28;20088;-70
2023/04/13 01:06:12;;;;;;;9.75;2.90;;;;;;;5.54;48.04;93156.66;5065989;28;20021;-70
2023/04/13 01:08:45;;;;;;;10.30;3.60;;;;;;;5.42;48.72;93170.38;5066092;28;20097;-70
2023/04/13 01:11:21;;;;;;;9.35;3.55;;;;;;;5.31;48.71;93161.88;5065838;28;20021;-71
2023/04/13 01:14:19;;;;;;;6.05;2.70;;;;;;;5.16;49.28;93170.13;5065868;28;20024;-71
2023/04/13 01:16:58;;;;;;;7.38;3.08;;;;;;;4.99;49.42;93176.00;5065767;28;20021;-70
2023/04/13 01:19:55;;;;;;;8.68;3.13;;;;;;;4.90;50.12;93177.75;5065604;28;20021;-70
2023/04/13 01:22:27;;;;;;;10.00;3.22;;;;;;;4.70;50.51;93173.63;5065665;28;20028;-70
2023/04/13 01:25:08;;;;;;;12.45;4.25;;;;;;;4.67;50.96;93176.88;5065638;28;20051;-70
2023/04/13 01:27:52;;;;;;;7.60;3.17;;;;;;;4.57;51.33;93183.91;5065651;28;20040;-71
2023/04/13 01:30:22;;;;;;;6.53;2.85;;;;;;;4.45;51.49;93180.16;5065593;28;20366;-71
2023/04/13 01:32:50;;;;;;;12.20;3.75;;;;;;;4.45;52.00;93182.81;5065424;28;20020;-71
2023/04/13 01:35:17;;;;;;;9.40;3.30;;;;;;;4.39;51.98;93174.19;5065344;28;20200;-71
2023/04/13 01:37:43;;;;;;;10.90;2.90;;;;;;;4.31;52.07;93178.28;5065429;28;20074;-71
2023/04/13 01:40:12;;;;;;;8.27;3.55;;;;;;;4.25;52.28;93184.72;5064772;28;20074;-72
2023/04/13 01:42:41;;;;;;;7.53;2.97;;;;;;;4.20;52.03;93182.94;5064668;28;20025;-71
2023/04/13 01:45:21;;;;;;;15.20;3.15;;;;;;;4.17;52.16;93167.72;5065330;28;20102;-71
2023/04/13 01:47:59;;;;;;;5.93;2.78;;;;;;;4.11;52.83;93179.41;5065043;28;20029;-72
2023/04/13 01:50:27;;;;;;;5.38;2.72;;;;;;;4.16;53.18;93168.00;5065278;28;20201;-72
2023/04/13 01:52:56;;;;;;;8.30;3.00;;;;;;;4.06;52.66;93176.84;5065113;28;20067;-71
2023/04/13 01:55:23;;;;;;;7.47;2.67;;;;;;;4.02;53.01;93160.03;5065099;28;20029;-71
2023/04/13 01:57:53;;;;;;;7.43;3.00;;;;;;;3.99;53.64;93171.19;5064923;28;20052;-71
2023/04/13 02:00:19;;;;;;;6.78;2.80;;;;;;;3.97;54.17;93168.81;5064858;28;20369;-72
2023/04/13 02:02:44;;;;;;;8.50;3.13;;;;;;;3.88;52.62;93161.84;5064989;28;20029;-72
2023/04/13 02:05:10;;;;;;;8.25;2.80;;;;;;;3.79;52.73;93165.16;5064845;28;20017;-72
2023/04/13 02:07:40;;;;;;;7.07;3.30;;;;;;;3.73;53.27;93173.44;5064735;28;20074;-71
2023/04/13 02:10:06;;;;;;;6.43;3.00;;;;;;;3.75;53.55;93166.78;5064689;28;20159;-71
2023/04/13 02:12:33;;;;;;;4.57;2.20;;;;;;;3.74;51.95;93175.75;5064882;28;20024;-71
2023/04/13 02:15:00;;;;;;;7.07;3.15;;;;;;;3.66;52.28;93163.22;5064542;28;20100;-72
2023/04/13 02:17:28;;;;;;;7.40;3.35;;;;;;;3.61;52.28;93177.25;5064716;28;20346;-71
2023/04/13 02:19:55;;;;;;;8.98;3.58;;;;;;;3.61;51.50;93174.63;5064637;28;20319;-71
2023/04/13 02:22:21;;;;;;;13.93;3.80;;;;;;;3.61;51.94;93176.50;5063237;28;20239;-71
2023/04/13 02:24:47;;;;;;;10.13;3.38;;;;;;;3.61;52.25;93179.91;5064439;28;20033;-71
2023/04/13 02:27:13;;;;;;;6.50;2.65;;;;;;;3.50;50.63;93180.31;5064421;28;20035;-71
2023/04/13 02:29:38;;;;;;;7.57;2.80;;;;;;;3.45;51.19;93181.19;5064266;28;20345;-71
2023/04/13 02:32:04;;;;;;;6.15;2.35;;;;;;;3.48;52.17;93182.47;5064593;28;20251;-71
2023/04/13 02:34:29;;;;;;;9.27;2.42;;;;;;;3.40;52.07;93186.53;5064440;28;20020;-72
2023/04/13 02:36:55;;;;;;;5.15;1.75;;;;;;;3.40;52.41;93192.59;5064279;28;20362;-70
2023/04/13 02:39:20;;;;;;;8.13;2.25;;;;;;;3.50;52.53;93194.31;5064374;28;20318;-70
2023/04/13 02:41:46;;;;;;;9.40;2.83;;;;;;;3.48;52.47;93193.00;5064147;28;20017;-71
2023/04/13 02:44:11;;;;;;;4.60;2.38;;;;;;;3.52;52.07;93191.34;5063771;28;20284;-71
2023/04/13 02:46:37;;;;;;;5.53;2.13;;;;;;;3.51;52.54;93192.44;5063885;28;20021;-71
2023/04/13 02:49:02;;;;;;;4.40;2.08;;;;;;;3.53;52.55;93199.00;5064310;28;20028;-71
2023/04/13 02:51:28;;;;;;;4.95;2.17;;;;;;;3.53;52.79;93195.56;5063840;28;20043;-70
2023/04/13 02:53:54;;;;;;;5.10;2.15;;;;;;;3.59;53.03;93212.88;5063788;28;20037;-70
2023/04/13 02:56:21;;;;;;;3.55;1.65;;;;;;;3.53;52.09;93206.13;5063820;28;20196;-71
2023/04/13 02:58:47;;;;;;;4.47;2.20;;;;;;;3.50;51.84;93194.31;5062672;28;20017;-71
2023/04/13 03:01:12;;;;;;;4.65;2.22;;;;;;;3.56;53.15;93205.53;5063869;28;20025;-71
2023/04/13 03:03:40;;;;;;;2.95;1.63;;;;;;;3.55;51.84;93207.38;5063807;28;20385;-71
2023/04/13 03:06:06;;;;;;;4.57;1.70;;;;;;;3.50;52.07;93210.13;5063536;28;20295;-71
2023/04/13 03:08:32;;;;;;;3.17;1.85;;;;;;;3.53;52.00;93203.47;5063817;28;20086;-70
2023/04/13 03:10:57;;;;;;;3.83;1.85;;;;;;;3.57;51.90;93207.13;5063628;28;20088;-70
2023/04/13 03:13:23;;;;;;;4.28;2.15;;;;;;;3.57;52.60;93201.84;5063496;28;20032;-71
2023/04/13 03:15:49;;;;;;;7.60;2.28;;;;;;;3.52;52.56;93200.06;5063231;28;20020;-71
2023/04/13 03:18:15;;;;;;;6.28;2.28;;;;;;;3.59;52.92;93211.03;5063488;28;20192;-70
2023/04/13 03:20:40;;;;;;;4.50;1.80;;;;;;;3.56;52.86;93216.88;5063528;28;20020;-70
2023/04/13 03:23:06;;;;;;;8.05;2.05;;;;;;;3.53;52.79;93211.38;5063399;28;20028;-70
2023/04/13 03:25:31;;;;;;;8.27;2.40;;;;;;;3.59;52.48;93208.38;5063550;28;20047;-73
2023/04/13 03:27:57;;;;;;;5.95;2.58;;;;;;;3.61;53.19;93224.69;5063255;28;20024;-71
2023/04/13 03:30:22;;;;;;;5.60;2.30;;;;;;;3.58;53.05;93214.75;5063099;28;20040;-71
2023/04/13 03:32:48;;;;;;;7.43;1.92;;;;;;;3.52;52.96;93221.16;5063380;28;20025;-72
2023/04/13 03:35:13;;;;;;;6.82;2.20;;;;;;;3.55;53.21;93214.53;5063209;28;20021;-72
2023/04/13 03:37:41;;;;;;;5.97;3.05;;;;;;;3.51;53.32;93208.25;5063081;28;20025;-72
2023/04/13 03:40:10;;;;;;;10.60;3.17;;;;;;;3.47;53.59;93220.44;5063082;28;20023;-72
2023/04/13 03:42:36;;;;;;;10.07;4.28;;;;;;;3.46;53.48;93218.84;5063123;28;20311;-72
2023/04/13 03:45:02;;;;;;;21.70;4.60;;;;;;;3.48;53.45;93214.88;5063031;28;20021;-72
2023/04/13 03:47:28;;;;;;;10.07;4.43;;;;;;;3.52;54.25;93231.69;5063112;28;20036;-72
2023/04/13 03:49:53;;;;;;;11.18;3.53;;;;;;;3.46;53.52;93224.91;5062931;28;20021;-72
2023/04/13 03:52:19;;;;;;;9.38;3.33;;;;;;;3.48;53.21;93214.88;5063169;28;20223;-72
2023/04/13 03:54:44;;;;;;;16.10;3.75;;;;;;;3.52;54.21;93215.06;5062949;28;20020;-72
2023/04/13 03:57:10;;;;;;;10.13;4.22;;;;;;;3.51;54.07;93229.34;5062756;28;20040;-71
2023/04/13 03:59:35;;;;;;;8.82;3.80;;;;;;;3.54;53.96;93223.47;5062714;28;20308;-71
2023/04/13 04:02:03;;;;;;;11.18;3.92;;;;;;;3.51;54.06;93218.78;5062869;28;20028;-72
2023/04/13 04:04:29;;;;;;;9.45;3.88;;;;;;;3.56;54.09;93229.25;5062212;28;20029;-72
2023/04/13 04:06:56;;;;;;;18.52;4.68;;;;;;;3.57;54.29;93225.56;5062741;28;20025;-72
2023/04/13 04:09:22;;;;;;;12.02;5.35;;;;;;;3.56;53.94;93218.72;5062622;28;20024;-72
2023/04/13 04:11:47;;;;;;;12.48;4.82;;;;;;;3.61;53.74;93229.19;5062682;28;20017;-72
2023/04/13 04:14:13;;;;;;;9.68;4.25;;;;;;;3.64;53.83;93233.09;5062562;28;20020;-72
2023/04/13 04:16:38;;;;;;;14.57;4.75;;;;;;;3.62;53.35;93222.84;5062628;28;20024;-72
2023/04/13 04:19:03;;;;;;;22.70;5.85;;;;;;;3.65;53.28;93230.19;5062751;28;20032;-71
2023/04/13 04:21:32;;;;;;;15.00;5.38;;;;;;;3.70;53.25;93232.75;5062565;28;20029;-71
2023/04/13 04:23:59;;;;;;;17.83;7.00;;;;;;;3.75;53.30;93237.19;5062425;28;20029;-71
2023/04/13 04:26:25;;;;;;;19.48;8.88;;;;;;;3.80;53.34;93240.50;5062456;28;20040;-71
2023/04/13 04:28:50;;;;;;;22.50;8.32;;;;;;;3.87;53.05;93239.38;5062605;28;20033;-72
2023/04/13 04:31:16;;;;;;;22.35;7.70;;;;;;;3.93;52.68;93239.03;5062516;28;20032;-71
2023/04/13 04:33:42;;;;;;;19.08;7.68;;;;;;;3.98;52.51;93227.59;5062732;28;20024;-72
2023/04/13 04:36:09;;;;;;;17.65;6.95;;;;;;;4.09;52.33;93241.41;5062503;28;20044;-72
2023/04/13 04:38:35;;;;;;;18.58;7.32;;;;;;;4.18;52.30;93245.75;5062457;28;20025;-72
2023/04/13 04:41:01;;;;;;;19.08;8.10;;;;;;;4.24;52.04;93243.06;5062604;28;20029;-72
2023/04/13 04:43:28;;;;;;;19.92;8.15;;;;;;;4.38;51.96;93238.59;5062214;28;20067;-73
2023/04/13 04:45:56;;;;;;;21.70;6.30;;;;;;;4.47;51.88;93249.28;5061256;28;20028;-71
2023/04/13 04:48:23;;;;;;;14.23;5.40;;;;;;;4.59;51.54;93244.31;5062503;28;20025;-71
2023/04/13 04:50:51;;;;;;;20.52;4.47;;;;;;;4.72;51.33;93242.75;5062435;28;20031;-70
2023/04/13 04:53:17;;;;;;;14.70;4.15;;;;;;;4.83;50.88;93249.44;5062105;28;20025;-70
2023/04/13 04:55:42;;;;;;;17.42;4.55;;;;;;;4.91;50.83;93251.41;5062215;28;20021;-70
2023/04/13 04:58:08;;;;;;;7.22;4.10;;;;;;;4.95;51.23;93254.25;5061953;28;20064;-70
2023/04/13 05:00:34;;;;;;;14.25;4.13;;;;;;;4.99;51.51;93242.81;5062310;28;20017;-69
2023/04/13 05:03:00;;;;;;;12.63;4.25;;;;;;;5.14;51.13;93246.25;5062167;28;20084;-70
2023/04/13 05:05:26;;;;;;;16.15;4.00;;;;;;;5.21;50.71;93249.25;5061935;28;20028;-70
2023/04/13 05:07:52;;;;;;;16.55;3.70;;;;;;;5.31;50.88;93246.44;5061921;28;20051;-78
2023/04/13 05:10:17;;;;;;;8.57;4.05;;;;;;;5.43;50.77;93238.00;5062028;28;20041;-77
2023/04/13 05:12:43;;;;;;;11.77;4.43;;;;;;;5.52;50.35;93248.69;5061969;28;20017;-77
2023/04/13 05:15:08;;;;;;;13.32;3.78;;;;;;;5.55;49.91;93250.72;5062929;28;20028;-77
2023/04/13 05:17:35;;;;;;;12.52;3.60;;;;;;;5.57;49.36;93254.63;5065815;28;20024;-77
2023/04/13 05:20:02;;;;;;;10.68;3.63;;;;;;;5.66;49.26;93246.78;5065719;28;20067;-77
2023/04/13 05:22:27;;;;;;;9.68;3.45;;;;;;;5.77;49.01;93248.13;5065777;28;20028;-78
2023/04/13 05:24:53;;;;;;;13.75;3.90;;;;;;;5.87;48.75;93241.84;5065743;28;20025;-79
2023/04/13 05:27:18;;;;;;;7.03;2.63;;;;;;;5.92;48.92;93244.38;5065493;28;20071;-78
2023/04/13 05:29:44;;;;;;;12.10;3.20;;;;;;;6.02;48.64;93244.19;5064325;28;20025;-79
2023/04/13 05:32:12;;;;;;;11.35;2.78;;;;;;;6.12;48.57;93252.97;5065454;28;20013;-79
2023/04/13 05:34:37;;;;;;;10.23;3.60;;;;;;;6.09;48.36;93246.41;5065290;28;20084;-78
2023/04/13 05:37:03;;;;;;;15.40;3.30;;;;;;;6.13;48.00;93244.72;5064097;28;20028;-79
2023/04/13 05:39:28;;;;;;;9.38;3.80;;;;;;;6.17;47.88;93255.50;5065168;28;20025;-78
2023/04/13 05:41:54;;;;;;;13.30;2.95;;;;;;;6.26;47.74;93247.63;5065020;28;20025;-78
2023/04/13 05:44:20;;;;;;;12.20;3.88;;;;;;;6.36;47.54;93252.69;5064975;28;20016;-77
2023/04/13 05:46:45;;;;;;;10.63;3.35;;;;;;;6.26;47.08;93244.97;5064862;28;20024;-77
2023/04/13 05:49:11;;;;;;;14.18;4.40;;;;;;;6.42;47.08;93249.59;5065047;28;20047;-77
2023/04/13 05:51:37;;;;;;;55.47;4.97;;;;;;;6.59;47.00;93262.19;5065008;28;20017;-78
2023/04/13 05:54:02;;;;;;;7.35;3.28;;;;;;;6.70;46.47;93251.34;5065100;28;20020;-78
2023/04/13 05:56:33;;;;;;;10.23;3.47;;;;;;;6.76;46.08;93250.91;5064675;28;20037;-78
2023/04/13 05:58:59;;;;;;;11.50;2.70;;;;;;;6.83;45.75;93239.88;5063955;28;20025;-78
2023/04/13 06:01:27;;;;;;;15.45;4.53;;;;;;;6.92;45.01;93227.47;5064970;28;20024;-78
2023/04/13 06:03:52;;;;;;;14.23;3.65;;;;;;;7.03;44.52;93238.56;5064681;28;20021;-78
2023/04/13 06:06:19;;;;;;;15.40;3.30;;;;;;;7.13;44.46;93242.81;5064660;28;20021;-77
2023/04/13 06:08:45;;;;;;;14.70;2.95;;;;;;;7.22;44.50;93243.63;5064704;28;20033;-78
2023/04/13 06:11:10;;;;;;;22.45;2.60;;;;;;;7.29;44.29;93243.97;5064772;28;20163;-78
2023/04/13 06:13:36;;;;;;;9.20;3.30;;;;;;;7.42;43.44;93250.25;5064933;28;20025;-78
2023/04/13 06:16:02;;;;;;;12.63;2.78;;;;;;;7.50;43.01;93241.53;5064906;28;20360;-78
2023/04/13 06:18:27;;;;;;;14.35;2.88;;;;;;;7.55;44.39;93249.34;5064818;28;20021;-81
2023/04/13 06:20:54;;;;;;;11.60;3.10;;;;;;;7.64;44.99;93244.84;5064635;28;20192;-86
2023/04/13 06:23:20;;;;;;;9.45;2.50;;;;;;;7.72;44.32;93253.13;5064713;28;20203;-80
2023/04/13 06:25:46;;;;;;;10.75;2.92;;;;;;;7.79;44.64;93243.59;5063559;28;20036;-78
2023/04/13 06:28:11;;;;;;;6.35;2.60;;;;;;;7.89;44.74;93255.78;5063939;28;20219;-78
2023/04/13 06:30:37;;;;;;;10.30;2.90;;;;;;;7.96;45.02;93250.03;5064175;28;20091;-82
2023/04/13 06:33:03;;;;;;;9.40;2.60;;;;;;;8.01;42.97;93255.97;5064594;28;20025;-81
2023/04/13 06:35:35;;;;;;;9.77;2.92;;;;;;;8.07;42.51;93251.28;5064300;28;20319;-78
2023/04/13 06:38:01;;;;;;;15.95;2.70;;;;;;;8.13;43.26;93252.69;5063404;28;20025;-77
2023/04/13 06:40:27;;;;;;;12.35;3.10;;;;;;;8.18;43.69;93255.22;5064261;28;20028;-81
2023/04/13 06:42:53;;;;;;;9.60;3.17;;;;;;;8.31;43.16;93261.44;5064295;28;20023;-79
2023/04/13 06:45:19;;;;;;;14.32;3.42;;;;;;;8.40;42.15;93250.81;5064127;28;20216;-76
2023/04/13 06:47:45;;;;;;;18.15;3.20;;;;;;;8.45;42.18;93253.34;5062875;28;20028;-81
2023/04/13 06:50:12;;;;;;;11.77;2.80;;;;;;;8.54;43.65;93242.72;5063909;28;20032;-78
2023/04/13 06:52:40;;;;;;;10.73;3.67;;;;;;;8.62;43.06;93248.00;5064015;28;20025;-83
2023/04/13 06:55:06;;;;;;;10.95;2.85;;;;;;;8.75;41.56;93254.25;5064195;28;20421;-80
2023/04/13 06:57:32;;;;;;;8.65;3.25;;;;;;;8.82;40.46;93253.75;5063996;28;20045;-81
2023/04/13 06:59:58;;;;;;;11.20;3.50;;;;;;;8.88;40.77;93257.81;5064016;28;20032;-81
2023/04/13 07:02:24;;;;;;;10.18;2.97;;;;;;;8.91;41.71;93261.72;5063789;28;20100;-79
2023/04/13 07:04:50;;;;;;;9.48;3.38;;;;;;;8.91;40.79;93256.41;5063568;28;20046;-79
2023/04/13 07:07:15;;;;;;;12.45;3.78;;;;;;;8.97;40.66;93247.91;5063594;28;20017;-82
2023/04/13 07:09:41;;;;;;;12.02;2.97;;;;;;;9.07;40.90;93256.66;5063988;28;20063;-83
2023/04/13 07:12:06;;;;;;;8.90;3.25;;;;;;;9.22;41.16;93256.16;5063656;28;20227;-80
2023/04/13 07:14:36;;;;;;;13.20;3.70;;;;;;;9.26;41.03;93249.09;5063823;28;20052;-81
2023/04/13 07:17:02;;;;;;;8.45;2.72;;;;;;;9.42;41.24;93257.31;5063434;28;20016;-79
2023/04/13 07:19:30;;;;;;;15.77;3.75;;;;;;;9.46;41.22;93254.78;5063715;28;20035;-79
2023/04/13 07:21:58;;;;;;;7.00;2.70;;;;;;;9.58;39.75;93249.56;5063366;28;20036;-76
2023/04/13 07:24:27;;;;;;;10.82;2.78;;;;;;;9.69;39.91;93245.44;5063403;28;20246;-79
2023/04/13 07:26:56;;;;;;;11.20;3.15;;;;;;;9.82;39.05;93240.97;5063345;28;20074;-75
2023/04/13 07:29:22;;;;;;;15.93;3.13;;;;;;;9.87;38.61;93242.66;5063132;28;20020;-74
2023/04/13 07:31:48;;;;;;;13.77;3.22;;;;;;;9.88;38.48;93246.91;5063217;28;20029;-75
2023/04/13 07:34:13;;;;;;;8.80;3.40;;;;;;;9.97;38.34;93239.63;5063062;28;20373;-75
2023/04/13 07:36:41;;;;;;;12.75;4.00;;;;;;;10.05;38.40;93236.13;5063017;28;20032;-75
2023/04/13 07:39:08;;;;;;;10.07;2.70;;;;;;;10.05;37.66;93244.13;5062248;28;20021;-76
2023/04/13 07:41:36;;;;;;;9.52;3.03;;;;;;;10.12;37.93;93240.94;5063359;28;20048;-79
2023/04/13 07:44:03;;;;;;;17.08;3.17;;;;;;;10.18;38.00;93235.09;5063379;28;20037;-77
2023/04/13 07:46:29;;;;;;;11.90;4.85;;;;;;;10.28;37.83;93233.13;5063125;28;20051;-77
2023/04/13 07:48:55;;;;;;;10.18;3.17;;;;;;;10.33;37.11;93230.31;5063008;28;20025;-77
2023/04/13 07:51:20;;;;;;;11.13;2.70;;;;;;;10.40;37.12;93230.56;5063008;28;20055;-79
2023/04/13 07:53:46;;;;;;;13.45;3.13;;;;;;;10.42;36.41;93229.16;5062795;28;20029;-78
2023/04/13 07:56:12;;;;;;;10.70;3.05;;;;;;;10.50;36.72;93224.84;5062643;28;20024;-78
2023/04/13 07:58:38;;;;;;;19.13;3.75;;;;;;;10.58;37.26;93220.53;5062776;28;20017;-78
2023/04/13 08:01:03;;;;;;;9.95;3.55;;;;;;;10.68;37.46;93235.34;5062951;28;20100;-79
2023/04/13 08:03:34;;;;;;;15.05;3.05;;;;;;;10.77;37.31;93223.47;5061529;28;20099;-78
2023/04/13 08:06:00;;;;;;;14.23;3.80;;;;;;;10.83;36.74;93226.72;5062631;28;20059;-74
2023/04/13 08:08:26;;;;;;;18.95;3.53;;;;;;;10.95;36.82;93233.94;5062723;28;20041;-76
2023/04/13 08:10:51;;;;;;;13.30;3.42;;;;;;;11.06;36.76;93219.09;5062660;28;20032;-76
2023/04/13 08:13:17;;;;;;;20.40;4.20;;;;;;;11.18;36.52;93226.34;5095129;28;20025;-75
2023/04/13 08:15:43;;;;;;;11.00;4.55;;;;;;;11.28;36.13;93214.47;5062811;28;20097;-77
2023/04/13 08:18:08;;;;;;;14.90;3.63;;;;;;;11.40;35.55;93217.13;5062643;28;20028;-77
2023/04/13 08:20:36;;;;;;;10.32;3.10;;;;;;;11.39;34.80;93216.34;5062798;28;20024;-79
2023/04/13 08:23:02;;;;;;;14.35;2.75;;;;;;;11.47;35.76;93217.34;5062758;28;20037;-78
2023/04/13 08:25:28;;;;;;;8.52;2.40;;;;;;;11.53;35.76;93213.34;5062378;28;20259;-79
2023/04/13 08:27:53;;;;;;;9.73;3.15;;;;;;;11.64;35.44;93208.31;5062339;28;20096;-81
2023/04/13 08:30:19;;;;;;;12.90;2.92;;;;;;;11.78;35.41;93206.09;5062465;28;20025;-78
2023/04/13 08:32:45;;;;;;;11.10;2.80;;;;;;;11.85;35.18;93200.97;5062355;28;20021;-77
2023/04/13 08:35:11;;;;;;;15.70;2.50;;;;;;;11.80;35.14;93198.53;5062384;28;20071;-77
2023/04/13 08:37:38;;;;;;;14.10;3.55;;;;;;;11.99;34.91;93207.88;5062391;28;20298;-77
2023/04/13 08:40:06;;;;;;;12.85;2.95;;;;;;;12.10;34.70;93198.28;5062413;28;20025;-79
2023/04/13 08:42:33;;;;;;;11.02;2.45;;;;;;;12.21;33.98;93202.03;5062355;28;20095;-78
2023/04/13 08:44:59;;;;;;;6.20;2.28;;;;;;;12.30;33.85;93204.56;5062385;28;20029;-79
2023/04/13 08:47:26;;;;;;;16.88;3.20;;;;;;;12.42;33.94;93195.72;5060969;28;20040;-78
2023/04/13 08:50:01;;;;;;;7.63;2.50;;;;;;;12.51;33.87;93191.00;5062730;28;20049;-77
2023/04/13 08:52:27;;;;;;;8.25;2.22;;;;;;;12.54;33.65;93193.00;5066245;28;20024;-77
2023/04/13 08:54:54;;;;;;;13.10;2.22;;;;;;;12.66;33.70;93192.19;5066190;28;20017;-79
2023/04/13 08:57:21;;;;;;;16.08;2.83;;;;;;;12.76;33.53;93188.22;5066079;28;20033;-79
2023/04/13 08:59:49;;;;;;;9.80;2.90;;;;;;;12.87;33.72;93181.25;5066002;28;20067;-78
2023/04/13 09:02:16;;;;;;;5.82;1.92;;;;;;;12.96;34.02;93179.16;5065844;28;20135;-78
2023/04/13 09:04:43;;;;;;;5.68;2.58;;;;;;;13.08;33.26;93180.22;5066131;28;20021;-80
2023/04/13 09:07:15;;;;;;;10.45;2.17;;;;;;;13.24;32.64;93187.13;5065902;28;20021;-78
2023/04/13 09:09:42;;;;;;;13.32;1.92;;;;;;;13.37;32.66;93176.34;5065920;28;20096;-78
2023/04/13 09:12:08;;;;;;;18.70;3.10;;;;;;;13.47;33.15;93178.50;5065667;28;20032;-81
2023/04/13 09:14:36;;;;;;;15.73;2.72;;;;;;;13.59;32.94;93181.09;5065997;28;20027;-78
2023/04/13 09:17:03;;;;;;;15.27;3.40;;;;;;;13.69;32.44;93187.81;5065999;28;20032;-78
2023/04/13 09:19:31;;;;;;;10.98;2.70;;;;;;;13.77;32.54;93173.44;5065883;28;20025;-78
2023/04/13 09:21:57;;;;;;;6.90;2.13;;;;;;;13.85;32.44;93171.72;5065539;28;20088;-78
2023/04/13 09:24:26;;;;;;;5.97;2.65;;;;;;;13.88;32.23;93171.03;5065685;28;20028;-79
2023/04/13 09:26:51;;;;;;;6.25;2.75;;;;;;;13.96;31.84;93177.28;5065595;28;20025;-79
2023/04/13 09:29:18;;;;;;;9.85;2.33;;;;;;;14.08;32.21;93169.13;5064426;28;20096;-81
2023/04/13 09:31:45;;;;;;;7.40;2.72;;;;;;;14.19;32.15;93172.03;5064471;28;20362;-76
2023/04/13 09:34:11;;;;;;;14.70;2.90;;;;;;;14.30;31.66;93156.94;5065636;28;20017;-77
2023/04/13 09:36:37;;;;;;;10.20;3.13;;;;;;;14.37;31.72;93167.00;5065452;28;20020;-77
2023/04/13 09:39:04;;;;;;;10.23;2.40;;;;;;;14.37;31.34;93158.97;5065469;28;20025;-77
2023/04/13 09:41:37;;;;;;;13.48;2.42;;;;;;;14.45;30.74;93158.00;5065421;28;20032;-76
2023/04/13 09:44:15;;;;;;;8.50;2.42;;;;;;;14.55;31.40;93159.31;5065612;28;20029;-79
2023/04/13 09:46:40;;;;;;;7.30;2.65;;;;;;;14.66;31.76;93154.97;5065236;28;20031;-78
2023/04/13 09:49:06;;;;;;;17.83;2.88;;;;;;;14.83;31.78;93148.38;5065006;28;20037;-77
2023/04/13 09:51:42;;;;;;;17.80;2.80;;;;;;;14.98;31.29;93150.16;5065552;28;20016;-79
2023/04/13 09:54:10;;;;;;;7.90;2.75;;;;;;;15.15;30.89;93143.53;5064207;28;20016;-79
2023/04/13 09:56:53;;;;;;;7.95;2.47;;;;;;;15.21;30.85;93139.41;5065351;28;20056;-75
2023/04/13 09:59:20;;;;;;;8.77;3.30;;;;;;;15.33;31.00;93138.47;5065076;28;20031;-78
2023/04/13 10:01:47;;;;;;;8.95;2.75;;;;;;;15.48;31.33;93133.31;5062573;28;20275;-77
2023/04/13 10:04:15;;;;;;;10.82;2.40;;;;;;;15.60;31.28;93122.34;5064825;28;20060;-80
2023/04/13 10:06:42;;;;;;;11.70;2.72;;;;;;;15.77;30.90;93127.25;5064873;28;20037;-78
2023/04/13 10:09:08;;;;;;;11.23;3.22;;;;;;;15.92;30.37;93119.38;5064916;28;20029;-79
2023/04/13 10:11:40;;;;;;;12.50;2.72;;;;;;;16.09;30.25;93126.88;5063734;28;20151;-79
2023/04/13 10:14:10;;;;;;;;;;;;;;;16.17;29.90;93120.44;5065190;28;20268;-78
2023/04/13 10:17:09;;;;;;;8.60;2.10;;;;;;;16.23;29.85;93113.59;5064792;28;19964;-77
2023/04/13 10:19:54;;;;;;;9.98;2.17;;;;;;;16.34;29.62;93124.47;5064929;28;20028;-76
2023/04/13 10:22:22;;;;;;;9.18;2.50;;;;;;;16.42;28.81;93114.56;5064724;28;20215;-77
2023/04/13 10:24:50;;;;;;;7.63;2.42;;;;;;;16.47;29.93;93119.63;5064614;28;20216;-78
2023/04/13 10:27:18;;;;;;;6.90;2.60;;;;;;;16.48;28.71;93110.41;5063183;28;20045;-77
2023/04/13 10:29:44;;;;;;;9.20;2.47;;;;;;;16.43;29.35;93105.38;5064604;28;20047;-77
2023/04/13 10:32:22;;;;;;;8.70;2.35;;;;;;;16.49;29.88;93103.91;5064597;28;20087;-78
2023/04/13 10:34:48;;;;;;;5.47;2.80;;;;;;;16.57;28.86;93102.06;5064406;28;20017;-77
2023/04/13 10:37:27;;;;;;;10.68;3.00;;;;;;;16.71;29.97;93098.72;5063992;28;20020;-77
2023/04/13 10:40:07;;;;;;;22.08;3.72;;;;;;;16.76;29.84;93091.09;5063143;28;20122;-78
2023/04/13 10:42:41;;;;;;;6.97;2.83;;;;;;;16.94;29.13;93090.53;5064430;28;20031;-77
2023/04/13 10:45:16;;;;;;;12.50;4.57;;;;;;;16.95;28.14;93100.91;5064095;28;20323;-77
2023/04/13 10:47:42;;;;;;;9.15;3.10;;;;;;;16.95;28.10;93082.06;5064097;28;20346;-77
2023/04/13 10:50:15;;;;;;;8.27;3.13;;;;;;;16.93;27.94;93083.56;5063921;28;20013;-78
2023/04/13 10:52:41;;;;;;;5.10;2.63;;;;;;;16.93;28.09;93087.03;5064126;28;20082;-77
2023/04/13 10:55:09;;;;;;;11.40;3.42;;;;;;;17.00;28.81;93075.56;5063956;28;20020;-78
2023/04/13 10:57:35;;;;;;;12.90;2.30;;;;;;;17.12;28.36;93079.91;5064030;28;20035;-80
2023/04/13 11:00:02;;;;;;;10.40;2.90;;;;;;;17.12;28.30;93079.91;5064121;28;20040;-78
2023/04/13 11:02:31;;;;;;;7.53;3.22;;;;;;;17.20;28.91;93068.03;5063976;28;20091;-78
2023/04/13 11:04:57;;;;;;;18.23;2.85;;;;;;;17.26;28.88;93077.31;5063800;28;20040;-79
2023/04/13 11:07:24;;;;;;;16.95;3.38;;;;;;;17.41;29.96;93068.16;5063709;28;20082;-79
2023/04/13 11:09:50;;;;;;;11.55;3.03;;;;;;;17.62;29.92;93050.59;5063775;28;20224;-79
2023/04/13 11:12:17;;;;;;;7.60;2.90;;;;;;;17.82;29.77;93062.63;5063687;28;20029;-79
2023/04/13 11:14:46;;;;;;;7.80;3.28;;;;;;;17.93;27.87;93054.63;5063528;28;20092;-79
2023/04/13 11:17:13;;;;;;;9.75;3.15;;;;;;;18.01;28.23;93050.03;5063658;28;20088;-82
2023/04/13 11:19:52;;;;;;;8.38;2.75;;;;;;;18.15;28.78;93047.38;5063773;28;20092;-81
2023/04/13 11:22:23;;;;;;;10.88;2.85;;;;;;;18.43;28.77;93048.63;5063500;28;20035;-81
2023/04/13 11:24:49;;;;;;;5.97;2.35;;;;;;;18.65;27.76;93052.91;5063552;28;20209;-78
2023/04/13 11:27:22;;;;;;;9.93;2.70;;;;;;;18.73;27.61;93052.94;5063354;28;20041;-80
2023/04/13 11:30:05;;;;;;;6.00;2.55;;;;;;;18.98;28.18;93056.44;5063443;28;20029;-81
2023/04/13 11:32:38;;;;;;;9.77;3.05;;;;;;;19.20;28.21;93051.03;5063504;28;20016;-79
2023/04/13 11:35:09;;;;;;;11.15;2.60;;;;;;;19.40;27.26;93057.56;5063534;28;20020;-80
2023/04/13 11:37:36;;;;;;;10.38;3.03;;;;;;;19.58;26.94;93051.34;5063294;28;20022;-81